createdAt,value
2023-05-14T00:01:36.528Z,10.60
2023-05-14T00:04:04.753Z,10.58
2023-05-14T00:06:32.841Z,10.54
2023-05-14T00:09:00.596Z,10.52
2023-05-14T00:11:28.592Z,10.54
2023-05-14T00:13:56.538Z,10.56
2023-05-14T00:16:24.289Z,10.55
2023-05-14T00:18:52.090Z,10.53
2023-05-14T00:21:20.664Z,10.53
2023-05-14T00:23:48.517Z,10.54
2023-05-14T00:26:16.387Z,10.52
2023-05-14T00:28:45.386Z,10.50
2023-05-14T00:31:14.242Z,10.49
2023-05-14T00:33:42.198Z,10.48
2023-05-14T00:36:10.074Z,10.47
2023-05-14T00:38:37.937Z,10.44
2023-05-14T00:41:05.977Z,10.40
2023-05-14T00:43:33.928Z,10.38
2023-05-14T00:46:02.212Z,10.40
2023-05-14T00:48:30.892Z,10.40
2023-05-14T00:50:59.368Z,10.36
2023-05-14T00:53:28.030Z,10.34
2023-05-14T00:55:56.097Z,10.34
2023-05-14T00:58:25.014Z,10.34
2023-05-14T01:00:52.982Z,10.33
2023-05-14T01:03:21.070Z,10.29
2023-05-14T01:05:52.483Z,10.28
2023-05-14T01:08:31.957Z,10.29
2023-05-14T01:11:24.992Z,10.27
2023-05-14T01:13:58.830Z,10.23
2023-05-14T01:16:29.074Z,10.22
2023-05-14T01:18:58.915Z,10.21
2023-05-14T01:21:37.889Z,10.21
2023-05-14T01:24:06.478Z,10.22
2023-05-14T01:26:36.379Z,10.19
2023-05-14T01:29:21.627Z,10.13
2023-05-14T01:31:51.464Z,10.06
2023-05-14T01:34:22.718Z,10.03
2023-05-14T01:36:52.232Z,10.02
2023-05-14T01:39:20.589Z,10.03
2023-05-14T01:41:49.058Z,10.02
2023-05-14T01:44:17.563Z,10.01
2023-05-14T01:46:45.382Z,10.01
2023-05-14T01:49:14.031Z,10.00
2023-05-14T01:51:41.917Z,9.99
2023-05-14T01:54:09.721Z,9.97
2023-05-14T01:56:37.959Z,9.95
2023-05-14T01:59:05.882Z,9.94
2023-05-14T02:01:34.115Z,9.93
2023-05-14T02:04:02.320Z,9.92
2023-05-14T02:06:30.195Z,9.92
2023-05-14T02:08:58.265Z,9.91
2023-05-14T02:11:26.295Z,9.90
2023-05-14T02:13:54.198Z,9.87
2023-05-14T02:16:22.243Z,9.85
2023-05-14T02:18:52.936Z,9.85
2023-05-14T02:21:20.863Z,9.83
2023-05-14T02:23:49.692Z,9.84
2023-05-14T02:26:17.703Z,9.83
2023-05-14T02:28:46.158Z,9.85
2023-05-14T02:31:14.664Z,9.85
2023-05-14T02:33:43.189Z,9.83
2023-05-14T02:36:11.148Z,9.84
2023-05-14T02:38:39.224Z,9.84
2023-05-14T02:41:07.138Z,9.85
2023-05-14T02:43:34.941Z,9.84
2023-05-14T02:46:03.004Z,9.84
2023-05-14T02:48:30.965Z,9.84
2023-05-14T02:50:58.904Z,9.86
2023-05-14T02:53:26.796Z,9.84
2023-05-14T02:55:54.774Z,9.84
2023-05-14T02:58:25.072Z,9.82
2023-05-14T03:00:56.297Z,9.80
2023-05-14T03:03:24.932Z,9.78
2023-05-14T03:05:53.898Z,9.82
2023-05-14T03:08:21.713Z,9.79
2023-05-14T03:10:49.740Z,9.80
2023-05-14T03:13:20.037Z,9.82
2023-05-14T03:15:48.681Z,9.83
2023-05-14T03:18:16.949Z,9.85
2023-05-14T03:20:45.372Z,9.85
2023-05-14T03:23:14.925Z,9.86
2023-05-14T03:25:42.841Z,9.87
2023-05-14T03:28:10.748Z,9.87
2023-05-14T03:30:38.656Z,9.87
2023-05-14T03:33:07.084Z,9.89
2023-05-14T03:35:35.098Z,9.88
2023-05-14T03:38:03.006Z,9.88
2023-05-14T03:40:30.886Z,9.88
2023-05-14T03:42:58.860Z,9.90
2023-05-14T03:45:28.704Z,9.87
2023-05-14T03:47:56.958Z,9.88
2023-05-14T03:50:25.801Z,9.90
2023-05-14T03:52:55.251Z,9.90
2023-05-14T03:55:24.059Z,9.94
2023-05-14T03:57:51.901Z,9.94
2023-05-14T04:00:20.025Z,9.95
2023-05-14T04:02:48.071Z,9.96
2023-05-14T04:05:16.745Z,10.01
2023-05-14T04:07:45.930Z,10.03
2023-05-14T04:10:14.210Z,10.04
2023-05-14T04:12:42.137Z,10.06
2023-05-14T04:15:11.148Z,10.05
2023-05-14T04:17:39.037Z,10.07
2023-05-14T04:20:08.027Z,10.08
2023-05-14T04:22:36.287Z,10.10
2023-05-14T04:25:04.676Z,10.13
2023-05-14T04:27:33.573Z,10.17
2023-05-14T04:30:01.321Z,10.18
2023-05-14T04:32:30.325Z,10.21
2023-05-14T04:34:58.822Z,10.25
2023-05-14T04:37:26.992Z,10.30
2023-05-14T04:39:54.985Z,10.32
2023-05-14T04:42:22.967Z,10.34
2023-05-14T04:44:51.992Z,10.37
2023-05-14T04:47:21.298Z,10.43
2023-05-14T04:49:49.130Z,10.47
2023-05-14T04:52:16.880Z,10.54
2023-05-14T04:54:44.846Z,10.61
2023-05-14T04:57:12.767Z,10.68
2023-05-14T04:59:40.804Z,10.76
2023-05-14T05:02:10.602Z,10.81
2023-05-14T05:04:39.106Z,10.85
2023-05-14T05:07:07.019Z,10.91
2023-05-14T05:09:34.983Z,10.97
2023-05-14T05:12:02.994Z,11.05
2023-05-14T05:14:37.267Z,11.12
2023-05-14T05:17:06.383Z,11.20
2023-05-14T05:19:43.682Z,11.28
2023-05-14T05:22:20.051Z,11.37
2023-05-14T05:24:49.761Z,11.46
2023-05-14T05:27:18.079Z,11.53
2023-05-14T05:29:46.315Z,11.59
2023-05-14T05:32:14.232Z,11.68
2023-05-14T05:34:42.298Z,11.76
2023-05-14T05:37:13.172Z,11.84
2023-05-14T05:39:42.519Z,11.93
2023-05-14T05:42:10.480Z,12.02
2023-05-14T05:44:38.295Z,12.10
2023-05-14T05:47:12.070Z,12.16
2023-05-14T05:49:40.148Z,12.25
2023-05-14T05:52:08.069Z,12.32
2023-05-14T05:54:36.040Z,12.39
2023-05-14T05:57:04.224Z,12.47
2023-05-14T05:59:32.080Z,12.53
2023-05-14T06:02:00.192Z,12.58
2023-05-14T06:04:28.244Z,12.63
2023-05-14T06:06:56.132Z,12.68
2023-05-14T06:09:24.001Z,12.76
2023-05-14T06:11:51.941Z,12.81
2023-05-14T06:14:19.730Z,12.87
2023-05-14T06:16:47.748Z,12.96
2023-05-14T06:19:16.005Z,13.06
2023-05-14T06:21:44.436Z,13.16
2023-05-14T06:24:13.423Z,13.25
2023-05-14T06:26:41.308Z,13.36
2023-05-14T06:29:09.186Z,13.46
2023-05-14T06:31:37.815Z,13.58
2023-05-14T06:34:05.778Z,13.70
2023-05-14T06:36:33.775Z,13.82
2023-05-14T06:39:01.673Z,13.94
2023-05-14T06:41:29.734Z,14.07
2023-05-14T06:43:57.698Z,14.18
2023-05-14T06:46:25.675Z,14.32
2023-05-14T06:48:53.611Z,14.43
2023-05-14T06:51:21.800Z,14.54
2023-05-14T06:53:49.667Z,14.67
2023-05-14T06:56:17.699Z,14.79
2023-05-14T06:58:45.745Z,14.90
2023-05-14T07:01:13.841Z,14.99
2023-05-14T07:03:41.655Z,15.09
2023-05-14T07:06:10.855Z,15.17
2023-05-14T07:08:40.859Z,15.24
2023-05-14T07:11:08.744Z,15.33
2023-05-14T07:13:36.650Z,15.42
2023-05-14T07:16:04.829Z,15.50
2023-05-14T07:18:32.867Z,15.61
2023-05-14T07:21:00.875Z,15.73
2023-05-14T07:23:28.609Z,15.83
2023-05-14T07:25:56.578Z,15.93
2023-05-14T07:28:24.426Z,16.05
2023-05-14T07:30:52.278Z,16.18
2023-05-14T07:33:20.188Z,16.30
2023-05-14T07:35:48.141Z,16.42
2023-05-14T07:38:16.936Z,16.52
2023-05-14T07:40:45.113Z,16.56
2023-05-14T07:43:13.280Z,16.62
2023-05-14T07:45:41.313Z,16.68
2023-05-14T07:48:09.546Z,16.71
2023-05-14T07:50:38.321Z,16.73
2023-05-14T07:53:06.365Z,16.77
2023-05-14T07:55:34.337Z,16.80
2023-05-14T07:58:02.133Z,16.85
2023-05-14T08:00:29.968Z,16.87
2023-05-14T08:02:58.097Z,16.90
2023-05-14T08:05:26.770Z,16.97
2023-05-14T08:07:54.682Z,17.04
2023-05-14T08:10:22.974Z,17.11
2023-05-14T08:12:51.266Z,17.15
2023-05-14T08:15:19.213Z,17.22
2023-05-14T08:17:47.155Z,17.29
2023-05-14T08:20:15.203Z,17.31
2023-05-14T08:22:43.086Z,17.32
2023-05-14T08:25:11.712Z,17.36
2023-05-14T08:27:39.977Z,17.40
2023-05-14T08:30:08.221Z,17.44
2023-05-14T08:32:38.366Z,17.49
2023-05-14T08:35:07.038Z,17.56
2023-05-14T08:37:34.957Z,17.63
2023-05-14T08:40:03.171Z,17.69
2023-05-14T08:42:31.794Z,17.76
2023-05-14T08:45:05.829Z,17.83
2023-05-14T08:47:34.457Z,17.90
2023-05-14T08:50:04.905Z,18.01
2023-05-14T08:52:34.376Z,18.09
2023-05-14T08:55:06.451Z,18.16
2023-05-14T08:57:35.434Z,18.26
2023-05-14T09:00:18.208Z,18.36
2023-05-14T09:02:49.326Z,18.45
2023-05-14T09:05:18.971Z,18.55
2023-05-14T09:07:46.874Z,18.65
2023-05-14T09:10:16.438Z,18.72
2023-05-14T09:12:44.392Z,18.79
2023-05-14T09:15:13.268Z,18.85
2023-05-14T09:17:41.448Z,18.88
2023-05-14T09:20:12.575Z,18.91
2023-05-14T09:22:41.084Z,18.91
2023-05-14T09:25:12.110Z,18.94
2023-05-14T09:27:40.131Z,18.98
2023-05-14T09:30:12.914Z,19.03
2023-05-14T09:32:50.637Z,19.06
2023-05-14T09:35:20.881Z,19.10
2023-05-14T09:37:53.758Z,19.09
2023-05-14T09:40:24.167Z,19.08
2023-05-14T09:42:52.702Z,19.09
2023-05-14T09:45:20.561Z,19.09
2023-05-14T09:47:48.434Z,19.10
2023-05-14T09:50:16.328Z,19.08
2023-05-14T09:52:44.333Z,19.05
2023-05-14T09:55:12.187Z,19.02
2023-05-14T09:57:40.768Z,19.00
2023-05-14T10:00:09.431Z,18.99
2023-05-14T10:02:38.677Z,18.99
2023-05-14T10:05:07.970Z,18.98
2023-05-14T10:07:48.640Z,18.97
2023-05-14T10:10:19.876Z,18.97
2023-05-14T10:13:13.462Z,18.99
2023-05-14T10:15:52.119Z,18.97
2023-05-14T10:18:24.333Z,18.92
2023-05-14T10:21:02.768Z,18.88
2023-05-14T10:23:31.117Z,18.83
2023-05-14T10:25:59.979Z,18.80
2023-05-14T10:28:28.618Z,18.82
2023-05-14T10:30:56.773Z,18.82
2023-05-14T10:33:24.774Z,18.80
2023-05-14T10:35:55.935Z,18.80
2023-05-14T10:38:27.718Z,18.77
2023-05-14T10:41:02.704Z,18.75
2023-05-14T10:43:36.465Z,18.75
2023-05-14T10:46:05.257Z,18.72
2023-05-14T10:48:34.099Z,18.66
2023-05-14T10:51:03.240Z,18.66
2023-05-14T10:53:39.875Z,18.60
2023-05-14T10:56:14.504Z,18.52
2023-05-14T10:58:44.470Z,18.46
2023-05-14T11:01:13.934Z,18.46
2023-05-14T11:03:47.175Z,18.42
2023-05-14T11:06:16.395Z,18.38
2023-05-14T11:08:46.265Z,18.36
2023-05-14T11:11:14.861Z,18.37
2023-05-14T11:13:42.884Z,18.36
2023-05-14T11:16:22.740Z,18.37
2023-05-14T11:19:04.439Z,18.33
2023-05-14T11:21:35.136Z,18.32
2023-05-14T11:24:05.098Z,18.27
2023-05-14T11:26:34.513Z,18.24
2023-05-14T11:29:02.701Z,18.20
2023-05-14T11:31:30.882Z,18.17
2023-05-14T11:33:58.980Z,18.12
2023-05-14T11:36:28.252Z,18.13
2023-05-14T11:38:56.161Z,18.11
2023-05-14T11:41:24.481Z,18.07
2023-05-14T11:43:52.382Z,18.05
2023-05-14T11:46:20.615Z,18.00
2023-05-14T11:48:48.641Z,17.97
2023-05-14T11:51:16.891Z,17.94
2023-05-14T11:53:46.054Z,17.86
2023-05-14T11:56:14.048Z,17.81
2023-05-14T11:58:48.240Z,17.76
2023-05-14T12:01:16.296Z,17.68
2023-05-14T12:03:44.532Z,17.58
2023-05-14T12:06:12.752Z,17.53
2023-05-14T12:08:40.777Z,17.52
2023-05-14T12:11:09.465Z,17.49
2023-05-14T12:13:37.442Z,17.44
2023-05-14T12:16:05.538Z,17.42
2023-05-14T12:18:33.963Z,17.42
2023-05-14T12:21:03.963Z,17.42
2023-05-14T12:23:32.622Z,17.39
2023-05-14T12:26:06.635Z,17.36
2023-05-14T12:28:38.402Z,17.29
2023-05-14T12:31:06.754Z,17.24
2023-05-14T12:33:35.002Z,17.15
2023-05-14T12:36:13.960Z,17.10
2023-05-14T12:39:00.692Z,17.07
2023-05-14T12:41:28.679Z,17.07
2023-05-14T12:43:57.356Z,17.10
2023-05-14T12:46:27.424Z,17.12
2023-05-14T12:48:56.234Z,17.16
2023-05-14T12:51:24.158Z,17.20
2023-05-14T12:53:54.151Z,17.24
2023-05-14T12:56:27.719Z,17.27
2023-05-14T12:58:56.482Z,17.29
2023-05-14T13:01:24.986Z,17.33
2023-05-14T13:03:52.989Z,17.36
2023-05-14T13:06:20.906Z,17.39
2023-05-14T13:08:48.887Z,17.40
2023-05-14T13:11:16.808Z,17.40
2023-05-14T13:13:44.763Z,17.38
2023-05-14T13:16:16.998Z,17.39
2023-05-14T13:18:45.302Z,17.37
2023-05-14T13:21:13.285Z,17.35
2023-05-14T13:23:41.119Z,17.32
2023-05-14T13:26:09.805Z,17.31
2023-05-14T13:28:37.850Z,17.31
2023-05-14T13:31:14.436Z,17.31
2023-05-14T13:33:45.279Z,17.30
2023-05-14T13:36:15.009Z,17.30
2023-05-14T13:38:43.139Z,17.32
2023-05-14T13:41:10.907Z,17.36
2023-05-14T13:43:39.027Z,17.45
2023-05-14T13:46:07.096Z,17.52
2023-05-14T13:48:37.139Z,17.59
2023-05-14T13:51:05.017Z,17.62
2023-05-14T13:53:32.900Z,17.62
2023-05-14T13:56:01.909Z,17.62
2023-05-14T13:58:30.315Z,17.61
2023-05-14T14:00:58.179Z,17.58
2023-05-14T14:03:26.114Z,17.57
2023-05-14T14:05:54.153Z,17.57
2023-05-14T14:08:24.103Z,17.56
2023-05-14T14:10:54.668Z,17.53
2023-05-14T14:13:23.030Z,17.52
2023-05-14T14:15:51.512Z,17.49
2023-05-14T14:18:19.766Z,17.47
2023-05-14T14:20:47.981Z,17.44
2023-05-14T14:23:16.562Z,17.41
2023-05-14T14:25:44.496Z,17.38
2023-05-14T14:28:12.419Z,17.36
2023-05-14T14:30:40.453Z,17.33
2023-05-14T14:33:08.366Z,17.32
2023-05-14T14:35:37.466Z,17.30
2023-05-14T14:38:05.798Z,17.28
2023-05-14T14:40:34.564Z,17.28
2023-05-14T14:43:02.435Z,17.24
2023-05-14T14:45:30.500Z,17.22
2023-05-14T14:48:37.486Z,17.22
2023-05-14T14:51:09.439Z,17.24
2023-05-14T14:53:37.349Z,17.26
2023-05-14T14:56:05.986Z,17.29
2023-05-14T14:58:34.062Z,17.30
2023-05-14T15:01:02.027Z,17.29
2023-05-14T15:03:30.058Z,17.27
2023-05-14T15:05:58.304Z,17.24
2023-05-14T15:08:27.896Z,17.20
2023-05-14T15:10:56.560Z,17.19
2023-05-14T15:13:25.144Z,17.19
2023-05-14T15:15:53.132Z,17.18
2023-05-14T15:18:21.161Z,17.19
2023-05-14T15:20:49.454Z,17.18
2023-05-14T15:23:17.288Z,17.17
2023-05-14T15:25:45.420Z,17.17
2023-05-14T15:28:13.323Z,17.15
2023-05-14T15:30:41.415Z,17.11
2023-05-14T15:33:09.572Z,17.07
2023-05-14T15:35:37.672Z,17.01
2023-05-14T15:38:07.141Z,16.93
2023-05-14T15:40:35.356Z,16.89
2023-05-14T15:43:03.705Z,16.86
2023-05-14T15:45:31.952Z,16.77
2023-05-14T15:47:59.892Z,16.73
2023-05-14T15:50:28.117Z,16.68
2023-05-14T15:52:56.270Z,16.63
2023-05-14T15:55:24.139Z,16.59
2023-05-14T15:57:52.103Z,16.57
2023-05-14T16:00:20.379Z,16.57
2023-05-14T16:02:48.279Z,16.58
2023-05-14T16:05:16.395Z,16.55
2023-05-14T16:07:44.330Z,16.51
2023-05-14T16:10:12.373Z,16.51
2023-05-14T16:12:40.375Z,16.51
2023-05-14T16:15:08.763Z,16.48
2023-05-14T16:17:36.792Z,16.44
2023-05-14T16:20:05.441Z,16.44
2023-05-14T16:22:34.873Z,16.44
2023-05-14T16:25:04.743Z,16.40
2023-05-14T16:27:32.985Z,16.38
2023-05-14T16:30:00.936Z,16.36
2023-05-14T16:32:29.107Z,16.31
2023-05-14T16:34:57.104Z,16.27
2023-05-14T16:37:29.418Z,16.23
2023-05-14T16:39:57.393Z,16.20
2023-05-14T16:42:26.358Z,16.18
2023-05-14T16:44:54.316Z,16.17
2023-05-14T16:47:22.363Z,16.15
2023-05-14T16:49:50.525Z,16.13
2023-05-14T16:52:18.689Z,16.10
2023-05-14T16:54:46.724Z,16.07
2023-05-14T16:57:14.676Z,16.05
2023-05-14T16:59:42.702Z,16.03
2023-05-14T17:02:13.566Z,16.01
2023-05-14T17:04:43.470Z,15.99
2023-05-14T17:07:11.817Z,15.98
2023-05-14T17:09:39.728Z,15.97
2023-05-14T17:12:07.931Z,15.93
2023-05-14T17:14:35.951Z,15.95
2023-05-14T17:17:03.998Z,15.97
2023-05-14T17:19:31.949Z,15.96
2023-05-14T17:21:59.974Z,15.95
2023-05-14T17:24:27.887Z,15.93
2023-05-14T17:26:57.295Z,15.94
2023-05-14T17:29:25.215Z,15.92
2023-05-14T17:31:53.341Z,15.91
2023-05-14T17:34:21.393Z,15.87
2023-05-14T17:36:49.611Z,15.84
2023-05-14T17:39:17.427Z,15.83
2023-05-14T17:41:45.375Z,15.81
2023-05-14T17:44:13.379Z,15.77
2023-05-14T17:46:42.449Z,15.73
2023-05-14T17:49:11.851Z,15.72
2023-05-14T17:51:39.743Z,15.71
2023-05-14T17:54:07.678Z,15.70
2023-05-14T17:56:35.618Z,15.71
2023-05-14T17:59:03.762Z,15.70
2023-05-14T18:01:31.872Z,15.68
2023-05-14T18:03:59.923Z,15.67
2023-05-14T18:06:27.789Z,15.67
2023-05-14T18:08:55.785Z,15.66
2023-05-14T18:11:23.745Z,15.64
2023-05-14T18:13:51.779Z,15.63
2023-05-14T18:16:19.607Z,15.60
2023-05-14T18:18:47.906Z,15.58
2023-05-14T18:21:16.052Z,15.56
2023-05-14T18:23:43.960Z,15.55
2023-05-14T18:26:11.846Z,15.52
2023-05-14T18:28:39.995Z,15.49
2023-05-14T18:31:08.017Z,15.49
2023-05-14T18:33:36.146Z,15.47
2023-05-14T18:36:04.350Z,15.45
2023-05-14T18:38:32.978Z,15.43
2023-05-14T18:41:05.388Z,15.38
2023-05-14T18:43:33.190Z,15.33
2023-05-14T18:46:01.106Z,15.27
2023-05-14T18:48:30.558Z,15.23
2023-05-14T18:50:58.785Z,15.20
2023-05-14T18:53:30.135Z,15.13
2023-05-14T18:56:00.193Z,15.08
2023-05-14T18:58:29.329Z,15.08
2023-05-14T19:01:06.470Z,15.04
2023-05-14T19:03:34.987Z,15.00
2023-05-14T19:06:03.232Z,14.99
2023-05-14T19:08:31.230Z,14.99
2023-05-14T19:10:59.205Z,14.97
2023-05-14T19:13:28.709Z,14.98
2023-05-14T19:15:56.787Z,14.98
2023-05-14T19:18:25.249Z,15.00
2023-05-14T19:20:54.931Z,15.02
2023-05-14T19:23:25.362Z,15.04
2023-05-14T19:25:54.680Z,15.04
2023-05-14T19:28:26.989Z,15.02
2023-05-14T19:30:54.793Z,15.04
2023-05-14T19:33:22.756Z,15.06
2023-05-14T19:35:51.091Z,15.05
2023-05-14T19:38:44.199Z,15.03
2023-05-14T19:41:12.667Z,15.02
2023-05-14T19:43:40.654Z,15.03
2023-05-14T19:46:08.623Z,15.03
2023-05-14T19:48:36.684Z,15.03
2023-05-14T19:51:04.567Z,15.05
2023-05-14T19:53:32.656Z,15.06
2023-05-14T19:56:02.091Z,15.07
2023-05-14T19:58:30.027Z,15.08
2023-05-14T20:00:58.664Z,15.10
2023-05-14T20:03:26.882Z,15.11
2023-05-14T20:05:55.833Z,15.11
2023-05-14T20:08:24.877Z,15.11
2023-05-14T20:10:52.826Z,15.11
2023-05-14T20:13:21.867Z,15.10
2023-05-14T20:15:51.361Z,15.11
2023-05-14T20:18:19.291Z,15.11
2023-05-14T20:20:49.095Z,15.09
2023-05-14T20:23:17.059Z,15.08
2023-05-14T20:25:44.883Z,15.05
2023-05-14T20:28:12.787Z,15.04
2023-05-14T20:30:41.182Z,15.01
2023-05-14T20:33:09.253Z,15.01
2023-05-14T20:35:37.497Z,15.00
2023-05-14T20:38:05.468Z,15.00
2023-05-14T20:40:33.312Z,14.99
2023-05-14T20:43:01.893Z,14.98
2023-05-14T20:45:30.346Z,14.98
2023-05-14T20:47:58.466Z,14.96
2023-05-14T20:50:28.018Z,14.95
2023-05-14T20:52:55.900Z,14.96
2023-05-14T20:55:24.274Z,14.96
2023-05-14T20:57:52.301Z,14.97
2023-05-14T21:00:20.732Z,14.97
2023-05-14T21:02:52.536Z,14.99
2023-05-14T21:05:20.957Z,14.99
2023-05-14T21:07:48.854Z,14.98
2023-05-14T21:10:19.177Z,14.98
2023-05-14T21:12:47.119Z,14.98
2023-05-14T21:15:15.322Z,14.97
2023-05-14T21:17:43.188Z,14.97
2023-05-14T21:20:15.537Z,14.95
2023-05-14T21:22:43.449Z,14.94
2023-05-14T21:25:11.418Z,14.93
2023-05-14T21:27:39.542Z,14.93
2023-05-14T21:30:09.941Z,14.89
2023-05-14T21:32:37.994Z,14.87
2023-05-14T21:35:06.263Z,14.84
2023-05-14T21:37:34.297Z,14.83
2023-05-14T21:40:02.129Z,14.84
2023-05-14T21:42:30.103Z,14.83
2023-05-14T21:44:57.958Z,14.84
2023-05-14T21:47:27.018Z,14.83
2023-05-14T21:49:55.222Z,14.83
2023-05-14T21:52:22.979Z,14.82
2023-05-14T21:54:50.768Z,14.82
2023-05-14T21:57:18.762Z,14.80
2023-05-14T21:59:46.601Z,14.80
2023-05-14T22:02:14.675Z,14.79
2023-05-14T22:04:42.569Z,14.80
2023-05-14T22:07:10.961Z,14.80
2023-05-14T22:09:38.789Z,14.80
2023-05-14T22:12:07.265Z,14.82
2023-05-14T22:14:35.057Z,14.82
2023-05-14T22:17:03.041Z,14.82
2023-05-14T22:19:31.429Z,14.82
2023-05-14T22:21:59.311Z,14.83
2023-05-14T22:24:27.292Z,14.85
2023-05-14T22:26:55.170Z,14.86
2023-05-14T22:29:23.082Z,14.87
2023-05-14T22:31:51.104Z,14.89
2023-05-14T22:34:19.452Z,14.90
2023-05-14T22:36:47.494Z,14.92
2023-05-14T22:39:15.587Z,14.93
2023-05-14T22:41:43.619Z,14.95
2023-05-14T22:44:11.432Z,14.97
2023-05-14T22:46:39.431Z,14.99
2023-05-14T22:49:07.287Z,15.00
2023-05-14T22:51:35.226Z,15.01
2023-05-14T22:54:03.225Z,15.03
2023-05-14T22:56:31.530Z,15.03
2023-05-14T22:59:02.261Z,15.04
2023-05-14T23:01:32.293Z,15.05
2023-05-14T23:04:00.240Z,15.06
2023-05-14T23:06:28.192Z,15.06
2023-05-14T23:08:56.282Z,15.06
2023-05-14T23:11:26.656Z,15.06
2023-05-14T23:13:54.553Z,15.07
2023-05-14T23:16:22.376Z,15.06
2023-05-14T23:18:50.700Z,15.06
2023-05-14T23:21:18.982Z,15.06
2023-05-14T23:23:47.120Z,15.08
2023-05-14T23:26:15.159Z,15.08
2023-05-14T23:28:42.995Z,15.08
2023-05-14T23:31:10.924Z,15.08
2023-05-14T23:33:39.871Z,15.08
2023-05-14T23:36:08.366Z,15.08
2023-05-14T23:38:36.668Z,15.09
2023-05-14T23:41:04.728Z,15.10
2023-05-14T23:43:33.882Z,15.10
2023-05-14T23:46:01.904Z,15.11
2023-05-14T23:48:29.819Z,15.11
2023-05-14T23:50:57.892Z,15.11
2023-05-14T23:53:25.888Z,15.12
2023-05-14T23:55:53.760Z,15.14
2023-05-14T23:58:21.796Z,15.14
